Pride Of Kent — MQCJ2 — position and weather

sailwx.info

Track history (hours):
 
Tides and Currents Weather Stations Pressure Air Temp Water Temp Dewpoint Dewpoint Depression Visibility Wind Speed Wind Dir Waves Ship Positions

Pride Of Kent

Operator: P & O Ferries

Last reported at 2015-May-24 22:32 UTC. Time now 2015-May-24 23:27 UTC.
Position N 50°58' E 001°51'.

Length 180 m; draft 6 m.

Type: Passenger vessel. MMSI: 232009000.

Date/timePositionNaut miles runAvg speedWind from/ knotsBaromVisibWave heightAir tempDewpointWater temp
2015-May-24 22:32N 50°58' E 001°51'1515.6
2015-May-24 21:34N 51°04' E 001°28'6 6.1
2015-May-24 20:33N 51°07' E 001°20'1716.7
2015-May-24 19:33N 50°59' E 001°43'3 2.5
2015-May-24 18:33N 50°58' E 001°46'1918.7
2015-May-24 17:32N 51°07' E 001°20'0 0.1
2015-May-24 16:18N 51°07' E 001°20'1115.2
2015-May-24 15:33N 51°01' E 001°35'1010.4
2015-May-24 14:33N 50°58' E 001°51'0 0.0
2015-May-24 13:34N 50°58' E 001°51'1312.7
2015-May-24 12:33N 51°02' E 001°32'9 9.0
2015-May-24 11:33N 51°07' E 001°20'10 9.9
2015-May-24 10:34N 51°04' E 001°35'1211.7
2015-May-24 09:33N 50°58' E 001°51'6 5.8
2015-May-24 08:33N 50°58' E 001°42'1616.3
2015-May-24 07:33N 51°07' E 001°20'0 0.0
2015-May-24 06:33N 51°07' E 001°20'7 6.5
2015-May-24 05:33N 51°05' E 001°30'1515.0
2015-May-24 04:33N 50°58' E 001°51'0 0.2
2015-May-24 03:33N 50°58' E 001°51'1818.1
2015-May-24 02:33N 51°06' E 001°25'3 3.4
2015-May-24 01:33N 51°07' E 001°20'5 5.4
2015-May-24 00:34N 51°06' E 001°28'1616.2
2015-May-23 23:34N 50°58' E 001°51'2 2.3
2015-May-23 22:33N 50°58' E 001°47'1817.7
2015-May-23 21:33N 51°07' E 001°22'2 1.7
2015-May-23 20:34N 51°07' E 001°20'1616.2
2015-May-23 19:33N 50°59' E 001°42'6 5.6
2015-May-23 18:33N 50°58' E 001°51'1615.7
2015-May-23 17:33N 51°02' E 001°27'7 6.7
2015-May-23 16:31N 51°07' E 001°20'1110.9
2015-May-23 15:33N 51°03' E 001°35'1110.2
2015-May-23 14:29N 50°58' E 001°51'5 5.1
2015-May-23 13:33N 50°58' E 001°44'18 8.8
2015-May-23 11:33N 51°07' E 001°20'1717.1
2015-May-23 10:34N 50°58' E 001°43'5 4.8
2015-May-23 09:34N 50°58' E 001°51'1110.5
2015-May-23 08:33N 51°01' E 001°35'11 5.2
2015-May-23 06:25N 51°07' E 001°20'1113.2
2015-May-23 05:34N 51°02' E 001°35'1010.4
2015-May-23 04:33N 50°58' E 001°51'2 1.6
2015-May-23 03:33N 50°58' E 001°48'1817.6
2015-May-23 02:33N 51°06' E 001°23'3 1.6
2015-May-23 00:33N 51°05' E 001°28'1616.2
2015-May-22 23:34N 50°58' E 001°51'2 2.1
2015-May-22 22:33N 50°58' E 001°48'1716.7
2015-May-22 21:33N 51°05' E 001°24'3 2.3
2015-May-22 20:13N 51°07' E 001°20'811.9
2015-May-22 19:33N 51°05' E 001°32'1413.8
2015-May-22 18:33N 50°58' E 001°51'6 6.0
2015-May-22 17:33N 50°58' E 001°41'1616.3
2015-May-22 16:33N 51°07' E 001°20'2 2.2
2015-May-22 15:33N 51°07' E 001°23'1717.3
2015-May-22 14:33N 50°58' E 001°47'2 2.4
2015-May-22 13:32N 50°58' E 001°51'1515.6
2015-May-22 12:33N 51°03' E 001°28'7 5.8
2015-May-22 11:25N 51°07' E 001°20'1012.0
2015-May-22 10:34N 51°02' E 001°34'1111.3
2015-May-22 09:34N 50°58' E 001°51'6 5.7
2015-May-22 08:33N 50°59' E 001°42'1615.8
2015-May-22 07:31N 51°07' E 001°20'0 0.0
2015-May-22 06:29N 51°07' E 001°20'1313.9
2015-May-22 05:34N 51°01' E 001°38'9 8.8
2015-May-22 04:33N 50°58' E 001°51'6 6.0
2015-May-22 03:33N 50°59' E 001°41'1515.5
2015-May-22 02:34N 51°07' E 001°21'1 0.6
2015-May-22 01:29N 51°07' E 001°20'8 9.2
2015-May-22 00:34N 51°05' E 001°33'1313.2
2015-May-21 23:33N 50°58' E 001°51'3 2.5
2015-May-21 22:33N 50°58' E 001°47'1818.0
2015-May-21 21:33N 51°06' E 001°22'1 1.3
2015-May-21 20:30N 51°07' E 001°20'1313.6
2015-May-21 19:33N 51°00' E 001°37'9 8.9
2015-May-21 18:34N 50°58' E 001°51'9 8.6
2015-May-21 17:33N 51°01' E 001°38'1313.1
2015-May-21 16:33N 51°07' E 001°20'5 5.4
2015-May-21 15:34N 51°06' E 001°28'1616.0
2015-May-21 14:34N 50°58' E 001°51'0 0.1
2015-May-21 13:33N 50°58' E 001°51'1716.8
2015-May-21 12:33N 51°04' E 001°26'5 4.5
2015-May-21 11:28N 51°07' E 001°20'1011.2
2015-May-21 10:34N 51°03' E 001°35'1111.4
2015-May-21 09:33N 50°58' E 001°51'3 3.3
2015-May-21 08:34N 50°58' E 001°46'1616.2
2015-May-21 07:33N 51°06' E 001°23'2 2.1
2015-May-21 06:22N 51°07' E 001°20'1012.4
2015-May-21 05:33N 51°04' E 001°35'1211.7
2015-May-21 04:33N 50°58' E 001°51'4 3.8
2015-May-21 03:33N 50°58' E 001°45'1515.6
2015-May-21 02:33N 51°06' E 001°24'3 1.4
2015-May-21 00:34N 51°05' E 001°28'1615.5
2015-May-20 23:34N 50°58' E 001°50'1 0.8
2015-May-20 22:33N 50°58' E 001°49'1818.2
2015-May-20 21:34N 51°06' E 001°23'2 2.3
2015-May-20 20:33N 51°07' E 001°20'1616.7
2015-May-20 19:34N 50°59' E 001°43'5 5.3
2015-May-20 18:33N 50°58' E 001°51'9 8.5
2015-May-20 17:30N 50°60' E 001°37'10 5.2
2015-May-20 15:33N 51°07' E 001°25'1717.2
2015-May-20 14:34N 50°58' E 001°49'1 1.2
2015-May-20 13:30N 50°58' E 001°51'1616.5
2015-May-20 12:34N 51°04' E 001°28'6 4.1
2015-May-20 11:07N 51°07' E 001°20'915.9
2015-May-20 10:34N 51°04' E 001°33'1312.7
2015-May-20 09:33N 50°58' E 001°51'3 3.0
2015-May-20 08:33N 50°58' E 001°46'1615.6
2015-May-20 07:33N 51°05' E 001°24'3 2.8
2015-May-20 06:22N 51°07' E 001°20'1113.7
2015-May-20 05:34N 51°03' E 001°36'1110.6
2015-May-20 04:33N 50°58' E 001°51'0 0.0
2015-May-20 03:33N 50°58' E 001°51'1616.1
2015-May-20 02:33N 51°04' E 001°28'6 4.0
2015-May-20 01:07N 51°07' E 001°20'610.5
2015-May-20 00:33N 51°06' E 001°29'1515.1
2015-May-19 23:34N 50°58' E 001°50'1 0.8
2015-May-19 22:33N 50°58' E 001°51'1716.6
2015-May-19 21:34N 51°04' E 001°26'5 4.9
2015-May-19 20:28N 51°07' E 001°20'1516.2
2015-May-19 19:33N 51°00' E 001°41'7 6.8
2015-May-19 18:34N 50°58' E 001°51'1010.1
2015-May-19 17:33N 50°59' E 001°35'10 5.1
2015-May-19 15:33N 51°08' E 001°26'1616.0
2015-May-19 14:34N 50°58' E 001°46'3 3.0
2015-May-19 13:33N 50°58' E 001°51'1111.2
2015-May-19 12:33N 51°02' E 001°35'4 2.1
2015-May-19 10:33N 51°05' E 001°29'1515.0
2015-May-19 09:33N 50°58' E 001°51'3 3.0
2015-May-19 08:33N 50°58' E 001°46'1817.6
2015-May-19 07:32N 51°07' E 001°21'1 1.0
2015-May-19 06:30N 51°07' E 001°20'1111.3
2015-May-19 05:34N 51°02' E 001°35'1110.8
2015-May-19 04:32N 50°58' E 001°51'1 0.7
2015-May-19 03:33N 50°58' E 001°50'1515.5
2015-May-19 02:33N 51°04' E 001°28'6 5.7
2015-May-19 01:33N 51°07' E 001°20'1313.2
2015-May-19 00:34N 51°01' E 001°38'9 8.4
2015-May-18 23:31N 50°58' E 001°51'1212.8
2015-May-18 22:34N 51°01' E 001°32'10 8.5
2015-May-18 21:24N 51°07' E 001°20'1213.9
2015-May-18 20:34N 51°02' E 001°36'10 9.9
2015-May-18 19:33N 50°58' E 001°51'10 9.7
2015-May-18 18:33N 51°00' E 001°36'13 9.5
2015-May-18 17:13N 51°07' E 001°20'6 9.1
2015-May-18 16:34N 51°05' E 001°29'1615.6
2015-May-18 15:34N 50°58' E 001°51'0 0.0
2015-May-18 14:34N 50°58' E 001°51'1515.3
2015-May-18 13:34N 51°03' E 001°28'6 3.1
2015-May-18 11:30N 51°07' E 001°20'7 7.1
2015-May-18 10:34N 51°05' E 001°30'1514.7
2015-May-18 09:33N 50°58' E 001°51'2 1.8
2015-May-18 08:33N 50°58' E 001°48'1616.4
2015-May-18 07:34N 51°05' E 001°25'4 3.1
2015-May-18 06:22N 51°07' E 001°20'1012.4
2015-May-18 05:33N 51°03' E 001°34'1211.5
2015-May-18 04:33N 50°58' E 001°51'0 0.4
2015-May-18 03:33N 50°58' E 001°51'1616.4
2015-May-18 02:33N 51°05' E 001°27'5 3.2
2015-May-18 01:04N 51°07' E 001°20'611.8
2015-May-18 00:33N 51°07' E 001°29'1514.9
2015-May-17 23:33N 50°58' E 001°49'1 1.2
2015-May-17 22:29N 50°58' E 001°51'1314.7
2015-May-17 21:33N 51°02' E 001°31'4 2.1
2015-May-17 19:34N 51°06' E 001°29'1615.9
2015-May-17 18:34N 50°58' E 001°51'5 4.5
2015-May-17 17:33N 50°58' E 001°44'1717.4
2015-May-17 16:33N 51°07' E 001°20'1 0.8
2015-May-17 15:33N 51°07' E 001°22'1717.1
2015-May-17 14:33N 50°58' E 001°45'4 3.9
2015-May-17 13:33N 50°58' E 001°51'1313.5
2015-May-17 12:34N 51°02' E 001°30'9 7.9
2015-May-17 11:29N 51°07' E 001°20'7 8.1
2015-May-17 10:33N 51°06' E 001°32'1414.4
2015-May-17 09:34N 50°58' E 001°51'2 2.0
2015-May-17 08:33N 50°58' E 001°47'1717.2
2015-May-17 07:33N 51°06' E 001°23'2 2.1
2015-May-17 06:24N 51°07' E 001°20'0 0.0
2015-May-17 04:27N 51°07' E 001°20'0 0.0
2015-May-17 03:19N 51°07' E 001°20'0 0.0
2015-May-17 02:04N 51°07' E 001°20'0 0.0
2015-May-17 01:30N 51°07' E 001°20'0 0.0
2015-May-16 23:29N 51°07' E 001°20'0 0.0
2015-May-16 22:33N 51°07' E 001°20'0 0.0
2015-May-16 21:30N 51°07' E 001°20'0 0.1
2015-May-16 20:24N 51°07' E 001°20'3 3.7
2015-May-16 19:34N 51°07' E 001°25'1818.3
2015-May-16 18:33N 50°58' E 001°51'1 0.9
2015-May-16 17:33N 50°58' E 001°49'1716.7
2015-May-16 16:34N 51°05' E 001°25'4 3.7
2015-May-16 15:33N 51°07' E 001°20'1616.0
2015-May-16 14:34N 50°59' E 001°42'6 5.8
2015-May-16 13:34N 50°58' E 001°51'1211.5
2015-May-16 12:33N 51°01' E 001°33'11 7.3
2015-May-16 11:06N 51°07' E 001°20'713.1
2015-May-16 10:34N 51°06' E 001°31'1514.6
2015-May-16 09:33N 50°58' E 001°51'3 3.2
2015-May-16 08:33N 50°58' E 001°46'1817.6
2015-May-16 07:33N 51°07' E 001°22'1 1.0
2015-May-16 06:26N 51°07' E 001°20'1112.8
2015-May-16 05:34N 51°02' E 001°36'1010.3
2015-May-16 04:33N 50°58' E 001°51'1 1.3
2015-May-16 03:33N 50°58' E 001°49'1515.3
2015-May-16 02:33N 51°03' E 001°26'5 3.8
2015-May-16 01:22N 51°03' E 001°33'6 7.7
2015-May-16 00:33N 51°06' E 001°25'1818.5
2015-May-15 23:33N 50°58' E 001°51'0 0.0
2015-May-15 22:34N 50°58' E 001°51'1312.6
2015-May-15 21:33N 51°02' E 001°32'9 6.2
2015-May-15 20:04N 51°07' E 001°20'5 9.6
2015-May-15 19:33N 51°06' E 001°28'1716.6
2015-May-15 18:34N 50°58' E 001°51'4 3.8
2015-May-15 17:33N 50°58' E 001°45'0 0.3
2015-May-15 16:33N 50°58' E 001°44'1817.9
2015-May-15 15:33N 51°07' E 001°20'1515.3
2015-May-15 14:33N 50°59' E 001°41'6 6.5
2015-May-15 13:34N 50°58' E 001°51'1312.5
2015-May-15 12:33N 51°02' E 001°32'9 6.5
2015-May-15 11:09N 51°07' E 001°20'813.2
2015-May-15 10:33N 51°04' E 001°32'1413.0
2015-May-15 09:31N 50°58' E 001°51'4 4.6
2015-May-15 08:32N 50°58' E 001°44'4 3.5
2015-May-15 07:16N 50°58' E 001°51'2125.8
2015-May-15 06:26N 51°07' E 001°20'1213.9
2015-May-15 05:34N 51°01' E 001°37'9 9.2
2015-May-15 04:32N 50°58' E 001°51'1 0.9
2015-May-15 03:34N 50°58' E 001°50'1615.7
2015-May-15 02:33N 51°04' E 001°27'3 1.4
2015-May-15 00:34N 51°07' E 001°24'1716.9
2015-May-14 23:33N 50°58' E 001°47'  
Track history (hours):
 
Tides and Currents Weather Stations Pressure Air Temp Water Temp Dewpoint Dewpoint Depression Visibility Wind Speed Wind Dir Waves Ship Positions

Pride Of Kent

Operator: P & O Ferries

Last reported at 2015-May-24 22:32 UTC. Time now 2015-May-24 23:27 UTC.
Position N 50°58' E 001°51'.

Length 180 m; draft 6 m.

Type: Passenger vessel. MMSI: 232009000.

Date/timePositionNaut miles runAvg speedWind from/ knotsBaromVisibWave heightAir tempDewpointWater temp
2015-May-24 22:32N 50°58' E 001°51'1515.6
2015-May-24 21:34N 51°04' E 001°28'6 6.1
2015-May-24 20:33N 51°07' E 001°20'1716.7
2015-May-24 19:33N 50°59' E 001°43'3 2.5
2015-May-24 18:33N 50°58' E 001°46'1918.7
2015-May-24 17:32N 51°07' E 001°20'0 0.1
2015-May-24 16:18N 51°07' E 001°20'1115.2
2015-May-24 15:33N 51°01' E 001°35'1010.4
2015-May-24 14:33N 50°58' E 001°51'0 0.0
2015-May-24 13:34N 50°58' E 001°51'1312.7
2015-May-24 12:33N 51°02' E 001°32'9 9.0
2015-May-24 11:33N 51°07' E 001°20'10 9.9
2015-May-24 10:34N 51°04' E 001°35'1211.7
2015-May-24 09:33N 50°58' E 001°51'6 5.8
2015-May-24 08:33N 50°58' E 001°42'1616.3
2015-May-24 07:33N 51°07' E 001°20'0 0.0
2015-May-24 06:33N 51°07' E 001°20'7 6.5
2015-May-24 05:33N 51°05' E 001°30'1515.0
2015-May-24 04:33N 50°58' E 001°51'0 0.2
2015-May-24 03:33N 50°58' E 001°51'1818.1
2015-May-24 02:33N 51°06' E 001°25'3 3.4
2015-May-24 01:33N 51°07' E 001°20'5 5.4
2015-May-24 00:34N 51°06' E 001°28'1616.2
2015-May-23 23:34N 50°58' E 001°51'2 2.3
2015-May-23 22:33N 50°58' E 001°47'1817.7
2015-May-23 21:33N 51°07' E 001°22'2 1.7
2015-May-23 20:34N 51°07' E 001°20'1616.2
2015-May-23 19:33N 50°59' E 001°42'6 5.6
2015-May-23 18:33N 50°58' E 001°51'1615.7
2015-May-23 17:33N 51°02' E 001°27'7 6.7
2015-May-23 16:31N 51°07' E 001°20'1110.9
2015-May-23 15:33N 51°03' E 001°35'1110.2
2015-May-23 14:29N 50°58' E 001°51'5 5.1
2015-May-23 13:33N 50°58' E 001°44'18 8.8
2015-May-23 11:33N 51°07' E 001°20'1717.1
2015-May-23 10:34N 50°58' E 001°43'5 4.8
2015-May-23 09:34N 50°58' E 001°51'1110.5
2015-May-23 08:33N 51°01' E 001°35'11 5.2
2015-May-23 06:25N 51°07' E 001°20'1113.2
2015-May-23 05:34N 51°02' E 001°35'1010.4
2015-May-23 04:33N 50°58' E 001°51'2 1.6
2015-May-23 03:33N 50°58' E 001°48'1817.6
2015-May-23 02:33N 51°06' E 001°23'3 1.6
2015-May-23 00:33N 51°05' E 001°28'1616.2
2015-May-22 23:34N 50°58' E 001°51'2 2.1
2015-May-22 22:33N 50°58' E 001°48'1716.7
2015-May-22 21:33N 51°05' E 001°24'3 2.3
2015-May-22 20:13N 51°07' E 001°20'811.9
2015-May-22 19:33N 51°05' E 001°32'1413.8
2015-May-22 18:33N 50°58' E 001°51'6 6.0
2015-May-22 17:33N 50°58' E 001°41'1616.3
2015-May-22 16:33N 51°07' E 001°20'2 2.2
2015-May-22 15:33N 51°07' E 001°23'1717.3
2015-May-22 14:33N 50°58' E 001°47'2 2.4
2015-May-22 13:32N 50°58' E 001°51'1515.6
2015-May-22 12:33N 51°03' E 001°28'7 5.8
2015-May-22 11:25N 51°07' E 001°20'1012.0
2015-May-22 10:34N 51°02' E 001°34'1111.3
2015-May-22 09:34N 50°58' E 001°51'6 5.7
2015-May-22 08:33N 50°59' E 001°42'1615.8
2015-May-22 07:31N 51°07' E 001°20'0 0.0
2015-May-22 06:29N 51°07' E 001°20'1313.9
2015-May-22 05:34N 51°01' E 001°38'9 8.8
2015-May-22 04:33N 50°58' E 001°51'6 6.0
2015-May-22 03:33N 50°59' E 001°41'1515.5
2015-May-22 02:34N 51°07' E 001°21'1 0.6
2015-May-22 01:29N 51°07' E 001°20'8 9.2
2015-May-22 00:34N 51°05' E 001°33'1313.2
2015-May-21 23:33N 50°58' E 001°51'3 2.5
2015-May-21 22:33N 50°58' E 001°47'1818.0
2015-May-21 21:33N 51°06' E 001°22'1 1.3
2015-May-21 20:30N 51°07' E 001°20'1313.6
2015-May-21 19:33N 51°00' E 001°37'9 8.9
2015-May-21 18:34N 50°58' E 001°51'9 8.6
2015-May-21 17:33N 51°01' E 001°38'1313.1
2015-May-21 16:33N 51°07' E 001°20'5 5.4
2015-May-21 15:34N 51°06' E 001°28'1616.0
2015-May-21 14:34N 50°58' E 001°51'0 0.1
2015-May-21 13:33N 50°58' E 001°51'1716.8
2015-May-21 12:33N 51°04' E 001°26'5 4.5
2015-May-21 11:28N 51°07' E 001°20'1011.2
2015-May-21 10:34N 51°03' E 001°35'1111.4
2015-May-21 09:33N 50°58' E 001°51'3 3.3
2015-May-21 08:34N 50°58' E 001°46'1616.2
2015-May-21 07:33N 51°06' E 001°23'2 2.1
2015-May-21 06:22N 51°07' E 001°20'1012.4
2015-May-21 05:33N 51°04' E 001°35'1211.7
2015-May-21 04:33N 50°58' E 001°51'4 3.8
2015-May-21 03:33N 50°58' E 001°45'1515.6
2015-May-21 02:33N 51°06' E 001°24'3 1.4
2015-May-21 00:34N 51°05' E 001°28'1615.5
2015-May-20 23:34N 50°58' E 001°50'1 0.8
2015-May-20 22:33N 50°58' E 001°49'1818.2
2015-May-20 21:34N 51°06' E 001°23'2 2.3
2015-May-20 20:33N 51°07' E 001°20'1616.7
2015-May-20 19:34N 50°59' E 001°43'5 5.3
2015-May-20 18:33N 50°58' E 001°51'9 8.5
2015-May-20 17:30N 50°60' E 001°37'10 5.2
2015-May-20 15:33N 51°07' E 001°25'1717.2
2015-May-20 14:34N 50°58' E 001°49'1 1.2
2015-May-20 13:30N 50°58' E 001°51'1616.5
2015-May-20 12:34N 51°04' E 001°28'6 4.1
2015-May-20 11:07N 51°07' E 001°20'915.9
2015-May-20 10:34N 51°04' E 001°33'1312.7
2015-May-20 09:33N 50°58' E 001°51'3 3.0
2015-May-20 08:33N 50°58' E 001°46'1615.6
2015-May-20 07:33N 51°05' E 001°24'3 2.8
2015-May-20 06:22N 51°07' E 001°20'1113.7
2015-May-20 05:34N 51°03' E 001°36'1110.6
2015-May-20 04:33N 50°58' E 001°51'0 0.0
2015-May-20 03:33N 50°58' E 001°51'1616.1
2015-May-20 02:33N 51°04' E 001°28'6 4.0
2015-May-20 01:07N 51°07' E 001°20'610.5
2015-May-20 00:33N 51°06' E 001°29'1515.1
2015-May-19 23:34N 50°58' E 001°50'1 0.8
2015-May-19 22:33N 50°58' E 001°51'1716.6
2015-May-19 21:34N 51°04' E 001°26'5 4.9
2015-May-19 20:28N 51°07' E 001°20'1516.2
2015-May-19 19:33N 51°00' E 001°41'7 6.8
2015-May-19 18:34N 50°58' E 001°51'1010.1
2015-May-19 17:33N 50°59' E 001°35'10 5.1
2015-May-19 15:33N 51°08' E 001°26'1616.0
2015-May-19 14:34N 50°58' E 001°46'3 3.0
2015-May-19 13:33N 50°58' E 001°51'1111.2
2015-May-19 12:33N 51°02' E 001°35'4 2.1
2015-May-19 10:33N 51°05' E 001°29'1515.0
2015-May-19 09:33N 50°58' E 001°51'3 3.0
2015-May-19 08:33N 50°58' E 001°46'1817.6
2015-May-19 07:32N 51°07' E 001°21'1 1.0
2015-May-19 06:30N 51°07' E 001°20'1111.3
2015-May-19 05:34N 51°02' E 001°35'1110.8
2015-May-19 04:32N 50°58' E 001°51'1 0.7
2015-May-19 03:33N 50°58' E 001°50'1515.5
2015-May-19 02:33N 51°04' E 001°28'6 5.7
2015-May-19 01:33N 51°07' E 001°20'1313.2
2015-May-19 00:34N 51°01' E 001°38'9 8.4
2015-May-18 23:31N 50°58' E 001°51'1212.8
2015-May-18 22:34N 51°01' E 001°32'10 8.5
2015-May-18 21:24N 51°07' E 001°20'1213.9
2015-May-18 20:34N 51°02' E 001°36'10 9.9
2015-May-18 19:33N 50°58' E 001°51'10 9.7
2015-May-18 18:33N 51°00' E 001°36'13 9.5
2015-May-18 17:13N 51°07' E 001°20'6 9.1
2015-May-18 16:34N 51°05' E 001°29'1615.6
2015-May-18 15:34N 50°58' E 001°51'0 0.0
2015-May-18 14:34N 50°58' E 001°51'1515.3
2015-May-18 13:34N 51°03' E 001°28'6 3.1
2015-May-18 11:30N 51°07' E 001°20'7 7.1
2015-May-18 10:34N 51°05' E 001°30'1514.7
2015-May-18 09:33N 50°58' E 001°51'2 1.8
2015-May-18 08:33N 50°58' E 001°48'1616.4
2015-May-18 07:34N 51°05' E 001°25'4 3.1
2015-May-18 06:22N 51°07' E 001°20'1012.4
2015-May-18 05:33N 51°03' E 001°34'1211.5
2015-May-18 04:33N 50°58' E 001°51'0 0.4
2015-May-18 03:33N 50°58' E 001°51'1616.4
2015-May-18 02:33N 51°05' E 001°27'5 3.2
2015-May-18 01:04N 51°07' E 001°20'611.8
2015-May-18 00:33N 51°07' E 001°29'1514.9
2015-May-17 23:33N 50°58' E 001°49'1 1.2
2015-May-17 22:29N 50°58' E 001°51'1314.7
2015-May-17 21:33N 51°02' E 001°31'4 2.1
2015-May-17 19:34N 51°06' E 001°29'1615.9
2015-May-17 18:34N 50°58' E 001°51'5 4.5
2015-May-17 17:33N 50°58' E 001°44'1717.4
2015-May-17 16:33N 51°07' E 001°20'1 0.8
2015-May-17 15:33N 51°07' E 001°22'1717.1
2015-May-17 14:33N 50°58' E 001°45'4 3.9
2015-May-17 13:33N 50°58' E 001°51'1313.5
2015-May-17 12:34N 51°02' E 001°30'9 7.9
2015-May-17 11:29N 51°07' E 001°20'7 8.1
2015-May-17 10:33N 51°06' E 001°32'1414.4
2015-May-17 09:34N 50°58' E 001°51'2 2.0
2015-May-17 08:33N 50°58' E 001°47'1717.2
2015-May-17 07:33N 51°06' E 001°23'2 2.1
2015-May-17 06:24N 51°07' E 001°20'0 0.0
2015-May-17 04:27N 51°07' E 001°20'0 0.0
2015-May-17 03:19N 51°07' E 001°20'0 0.0
2015-May-17 02:04N 51°07' E 001°20'0 0.0
2015-May-17 01:30N 51°07' E 001°20'0 0.0
2015-May-16 23:29N 51°07' E 001°20'0 0.0
2015-May-16 22:33N 51°07' E 001°20'0 0.0
2015-May-16 21:30N 51°07' E 001°20'0 0.1
2015-May-16 20:24N 51°07' E 001°20'3 3.7
2015-May-16 19:34N 51°07' E 001°25'1818.3
2015-May-16 18:33N 50°58' E 001°51'1 0.9
2015-May-16 17:33N 50°58' E 001°49'1716.7
2015-May-16 16:34N 51°05' E 001°25'4 3.7
2015-May-16 15:33N 51°07' E 001°20'1616.0
2015-May-16 14:34N 50°59' E 001°42'6 5.8
2015-May-16 13:34N 50°58' E 001°51'1211.5
2015-May-16 12:33N 51°01' E 001°33'11 7.3
2015-May-16 11:06N 51°07' E 001°20'713.1
2015-May-16 10:34N 51°06' E 001°31'1514.6
2015-May-16 09:33N 50°58' E 001°51'3 3.2
2015-May-16 08:33N 50°58' E 001°46'1817.6
2015-May-16 07:33N 51°07' E 001°22'1 1.0
2015-May-16 06:26N 51°07' E 001°20'1112.8
2015-May-16 05:34N 51°02' E 001°36'1010.3
2015-May-16 04:33N 50°58' E 001°51'1 1.3
2015-May-16 03:33N 50°58' E 001°49'1515.3
2015-May-16 02:33N 51°03' E 001°26'5 3.8
2015-May-16 01:22N 51°03' E 001°33'6 7.7
2015-May-16 00:33N 51°06' E 001°25'1818.5
2015-May-15 23:33N 50°58' E 001°51'0 0.0
2015-May-15 22:34N 50°58' E 001°51'1312.6
2015-May-15 21:33N 51°02' E 001°32'9 6.2
2015-May-15 20:04N 51°07' E 001°20'5 9.6
2015-May-15 19:33N 51°06' E 001°28'1716.6
2015-May-15 18:34N 50°58' E 001°51'4 3.8
2015-May-15 17:33N 50°58' E 001°45'0 0.3
2015-May-15 16:33N 50°58' E 001°44'1817.9
2015-May-15 15:33N 51°07' E 001°20'1515.3
2015-May-15 14:33N 50°59' E 001°41'6 6.5
2015-May-15 13:34N 50°58' E 001°51'1312.5
2015-May-15 12:33N 51°02' E 001°32'9 6.5
2015-May-15 11:09N 51°07' E 001°20'813.2
2015-May-15 10:33N 51°04' E 001°32'1413.0
2015-May-15 09:31N 50°58' E 001°51'4 4.6
2015-May-15 08:32N 50°58' E 001°44'4 3.5
2015-May-15 07:16N 50°58' E 001°51'2125.8
2015-May-15 06:26N 51°07' E 001°20'1213.9
2015-May-15 05:34N 51°01' E 001°37'9 9.2
2015-May-15 04:32N 50°58' E 001°51'1 0.9
2015-May-15 03:34N 50°58' E 001°50'1615.7
2015-May-15 02:33N 51°04' E 001°27'3 1.4
2015-May-15 00:34N 51°07' E 001°24'1716.9
2015-May-14 23:33N 50°58' E 001°47'  

Dump ship's entire track history